sensor_id;sensor_type;location;lat;lon;timestamp;P1;durP1;ratioP1;P2;durP2;ratioP2
42144;SDS011;27813;43.516;11.890;2022-10-29T03:25:26;3.15;;;2.03;;
42144;SDS011;27813;43.516;11.890;2022-10-29T03:29:32;5.03;;;2.20;;
42144;SDS011;27813;43.516;11.890;2022-10-29T03:33:39;5.47;;;2.60;;
42144;SDS011;27813;43.516;11.890;2022-10-29T03:41:51;2.80;;;1.70;;
42144;SDS011;27813;43.516;11.890;2022-10-29T03:45:57;4.07;;;1.80;;
42144;SDS011;27813;43.516;11.890;2022-10-29T03:50:02;6.22;;;2.65;;
42144;SDS011;27813;43.516;11.890;2022-10-29T03:54:07;4.10;;;2.10;;
42144;SDS011;27813;43.516;11.890;2022-10-29T03:58:12;3.42;;;1.98;;
42144;SDS011;27813;43.516;11.890;2022-10-29T04:02:17;4.20;;;2.50;;
42144;SDS011;27813;43.516;11.890;2022-10-29T04:06:22;7.50;;;2.10;;
42144;SDS011;27813;43.516;11.890;2022-10-29T04:14:31;4.10;;;2.20;;
42144;SDS011;27813;43.516;11.890;2022-10-29T04:18:37;3.83;;;1.90;;
42144;SDS011;27813;43.516;11.890;2022-10-29T04:27:06;5.30;;;2.33;;
42144;SDS011;27813;43.516;11.890;2022-10-29T04:31:31;8.70;;;3.13;;
42144;SDS011;27813;43.516;11.890;2022-10-29T04:39:40;5.80;;;2.80;;
42144;SDS011;27813;43.516;11.890;2022-10-29T04:43:45;5.55;;;2.58;;
42144;SDS011;27813;43.516;11.890;2022-10-29T04:47:57;5.70;;;2.33;;
42144;SDS011;27813;43.516;11.890;2022-10-29T04:52:05;4.68;;;2.38;;
42144;SDS011;27813;43.516;11.890;2022-10-29T04:56:10;7.15;;;2.15;;
42144;SDS011;27813;43.516;11.890;2022-10-29T05:00:15;7.30;;;2.20;;
42144;SDS011;27813;43.516;11.890;2022-10-29T05:04:20;5.95;;;2.13;;
42144;SDS011;27813;43.516;11.890;2022-10-29T05:08:26;5.22;;;2.25;;
42144;SDS011;27813;43.516;11.890;2022-10-29T05:12:31;3.13;;;2.10;;
42144;SDS011;27813;43.516;11.890;2022-10-29T05:24:46;6.00;;;2.03;;
42144;SDS011;27813;43.516;11.890;2022-10-29T05:28:52;4.53;;;2.40;;
42144;SDS011;27813;43.516;11.890;2022-10-29T05:32:57;6.13;;;2.45;;
42144;SDS011;27813;43.516;11.890;2022-10-29T05:41:07;5.47;;;2.97;;
42144;SDS011;27813;43.516;11.890;2022-10-29T05:45:12;5.65;;;2.20;;
42144;SDS011;27813;43.516;11.890;2022-10-29T05:49:18;11.57;;;4.13;;
42144;SDS011;27813;43.516;11.890;2022-10-29T05:53:24;7.38;;;3.63;;
42144;SDS011;27813;43.516;11.890;2022-10-29T06:01:33;5.57;;;2.53;;
42144;SDS011;27813;43.516;11.890;2022-10-29T06:05:38;6.07;;;2.80;;
42144;SDS011;27813;43.516;11.890;2022-10-29T06:09:44;3.28;;;1.85;;
42144;SDS011;27813;43.516;11.890;2022-10-29T06:13:48;4.03;;;2.05;;
42144;SDS011;27813;43.516;11.890;2022-10-29T06:17:53;5.93;;;2.78;;
42144;SDS011;27813;43.516;11.890;2022-10-29T06:21:58;5.47;;;2.13;;
42144;SDS011;27813;43.516;11.890;2022-10-29T06:30:09;5.07;;;2.00;;
42144;SDS011;27813;43.516;11.890;2022-10-29T06:34:14;3.65;;;2.03;;
42144;SDS011;27813;43.516;11.890;2022-10-29T06:38:20;5.88;;;2.17;;
42144;SDS011;27813;43.516;11.890;2022-10-29T06:42:25;8.93;;;2.55;;
42144;SDS011;27813;43.516;11.890;2022-10-29T06:46:29;6.28;;;2.70;;
42144;SDS011;27813;43.516;11.890;2022-10-29T06:50:37;4.53;;;2.40;;
42144;SDS011;27813;43.516;11.890;2022-10-29T06:54:42;6.00;;;2.72;;
42144;SDS011;27813;43.516;11.890;2022-10-29T06:58:48;4.60;;;2.80;;
42144;SDS011;27813;43.516;11.890;2022-10-29T07:02:52;8.48;;;2.80;;
42144;SDS011;27813;43.516;11.890;2022-10-29T07:06:58;6.95;;;2.63;;
42144;SDS011;27813;43.516;11.890;2022-10-29T07:11:02;6.65;;;2.60;;
42144;SDS011;27813;43.516;11.890;2022-10-29T07:15:08;4.47;;;2.47;;
42144;SDS011;27813;43.516;11.890;2022-10-29T07:19:13;7.95;;;2.60;;
42144;SDS011;27813;43.516;11.890;2022-10-29T07:23:18;7.18;;;2.78;;
42144;SDS011;27813;43.516;11.890;2022-10-29T07:31:28;11.32;;;2.88;;
42144;SDS011;27813;43.516;11.890;2022-10-29T07:35:33;7.82;;;3.50;;
42144;SDS011;27813;43.516;11.890;2022-10-29T07:39:38;10.65;;;3.83;;
42144;SDS011;27813;43.516;11.890;2022-10-29T07:47:47;12.77;;;4.47;;
42144;SDS011;27813;43.516;11.890;2022-10-29T07:52:05;13.25;;;4.88;;
42144;SDS011;27813;43.516;11.890;2022-10-29T07:56:10;8.82;;;3.95;;
42144;SDS011;27813;43.516;11.890;2022-10-29T08:00:15;8.02;;;3.08;;
42144;SDS011;27813;43.516;11.890;2022-10-29T08:04:20;7.47;;;2.60;;
42144;SDS011;27813;43.516;11.890;2022-10-29T08:08:24;8.63;;;2.83;;
42144;SDS011;27813;43.516;11.890;2022-10-29T08:12:29;8.43;;;3.67;;
42144;SDS011;27813;43.516;11.890;2022-10-29T08:20:37;7.13;;;2.53;;
42144;SDS011;27813;43.516;11.890;2022-10-29T08:24:42;7.90;;;2.58;;
42144;SDS011;27813;43.516;11.890;2022-10-29T08:28:47;4.60;;;2.75;;
42144;SDS011;27813;43.516;11.890;2022-10-29T08:32:51;7.95;;;2.67;;
42144;SDS011;27813;43.516;11.890;2022-10-29T08:36:58;6.93;;;3.20;;
42144;SDS011;27813;43.516;11.890;2022-10-29T08:45:36;4.75;;;2.95;;
42144;SDS011;27813;43.516;11.890;2022-10-29T08:54:17;7.93;;;2.95;;
42144;SDS011;27813;43.516;11.890;2022-10-29T08:58:44;5.60;;;2.20;;
42144;SDS011;27813;43.516;11.890;2022-10-29T09:03:14;7.75;;;2.15;;
42144;SDS011;27813;43.516;11.890;2022-10-29T09:20:32;5.43;;;2.30;;
42144;SDS011;27813;43.516;11.890;2022-10-29T09:34:10;5.13;;;1.92;;
42144;SDS011;27813;43.516;11.890;2022-10-29T09:38:33;4.13;;;1.77;;
42144;SDS011;27813;43.516;11.890;2022-10-29T09:42:43;6.60;;;1.80;;
42144;SDS011;27813;43.516;11.890;2022-10-29T09:47:09;5.40;;;1.98;;
42144;SDS011;27813;43.516;11.890;2022-10-29T09:55:56;4.35;;;1.77;;
42144;SDS011;27813;43.516;11.890;2022-10-29T10:00:03;2.25;;;1.35;;
42144;SDS011;27813;43.516;11.890;2022-10-29T10:04:30;2.65;;;1.73;;
42144;SDS011;27813;43.516;11.890;2022-10-29T10:08:59;2.92;;;1.30;;
42144;SDS011;27813;43.516;11.890;2022-10-29T10:13:05;3.60;;;1.40;;
42144;SDS011;27813;43.516;11.890;2022-10-29T10:17:20;5.07;;;1.35;;
42144;SDS011;27813;43.516;11.890;2022-10-29T10:25:58;2.65;;;1.08;;
42144;SDS011;27813;43.516;11.890;2022-10-29T10:30:10;2.45;;;1.30;;
42144;SDS011;27813;43.516;11.890;2022-10-29T10:34:19;3.63;;;1.50;;
42144;SDS011;27813;43.516;11.890;2022-10-29T10:38:35;4.55;;;1.27;;
42144;SDS011;27813;43.516;11.890;2022-10-29T10:42:46;2.90;;;1.60;;
42144;SDS011;27813;43.516;11.890;2022-10-29T10:46:51;2.05;;;1.05;;
42144;SDS011;27813;43.516;11.890;2022-10-29T10:55:37;6.75;;;1.60;;
42144;SDS011;27813;43.516;11.890;2022-10-29T11:08:19;5.05;;;1.80;;
42144;SDS011;27813;43.516;11.890;2022-10-29T11:12:50;5.65;;;1.48;;
42144;SDS011;27813;43.516;11.890;2022-10-29T11:16:58;3.67;;;1.85;;
42144;SDS011;27813;43.516;11.890;2022-10-29T11:30:18;2.88;;;1.40;;
42144;SDS011;27813;43.516;11.890;2022-10-29T11:38:36;5.80;;;1.33;;
42144;SDS011;27813;43.516;11.890;2022-10-29T11:42:47;2.60;;;1.35;;
42144;SDS011;27813;43.516;11.890;2022-10-29T11:55:57;2.30;;;1.20;;
42144;SDS011;27813;43.516;11.890;2022-10-29T12:13:04;2.53;;;1.27;;
42144;SDS011;27813;43.516;11.890;2022-10-29T12:17:21;2.00;;;1.25;;
42144;SDS011;27813;43.516;11.890;2022-10-29T12:21:43;1.90;;;1.00;;
42144;SDS011;27813;43.516;11.890;2022-10-29T12:26:10;1.85;;;1.13;;
42144;SDS011;27813;43.516;11.890;2022-10-29T12:30:19;2.67;;;1.30;;
42144;SDS011;27813;43.516;11.890;2022-10-29T12:39:10;3.53;;;1.33;;
42144;SDS011;27813;43.516;11.890;2022-10-29T12:43:29;2.88;;;1.60;;
42144;SDS011;27813;43.516;11.890;2022-10-29T12:51:55;2.03;;;1.30;;
42144;SDS011;27813;43.516;11.890;2022-10-29T12:56:06;3.75;;;1.90;;
42144;SDS011;27813;43.516;11.890;2022-10-29T13:09:33;4.32;;;1.23;;
42144;SDS011;27813;43.516;11.890;2022-10-29T13:13:40;3.78;;;1.70;;
42144;SDS011;27813;43.516;11.890;2022-10-29T13:17:55;4.40;;;1.55;;
42144;SDS011;27813;43.516;11.890;2022-10-29T13:39:24;5.22;;;1.45;;
42144;SDS011;27813;43.516;11.890;2022-10-29T13:43:29;4.63;;;1.38;;
42144;SDS011;27813;43.516;11.890;2022-10-29T13:47:35;3.67;;;1.45;;
42144;SDS011;27813;43.516;11.890;2022-10-29T13:55:59;4.32;;;1.48;;
42144;SDS011;27813;43.516;11.890;2022-10-29T14:04:21;4.80;;;2.05;;
42144;SDS011;27813;43.516;11.890;2022-10-29T14:08:36;2.85;;;1.30;;
42144;SDS011;27813;43.516;11.890;2022-10-29T14:12:45;2.80;;;1.50;;
42144;SDS011;27813;43.516;11.890;2022-10-29T14:17:07;3.30;;;1.38;;
42144;SDS011;27813;43.516;11.890;2022-10-29T14:21:21;2.10;;;1.20;;
42144;SDS011;27813;43.516;11.890;2022-10-29T14:25:33;2.05;;;1.27;;
42144;SDS011;27813;43.516;11.890;2022-10-29T14:29:39;3.67;;;1.20;;
42144;SDS011;27813;43.516;11.890;2022-10-29T14:33:45;3.72;;;1.30;;
42144;SDS011;27813;43.516;11.890;2022-10-29T14:37:56;3.75;;;1.17;;
42144;SDS011;27813;43.516;11.890;2022-10-29T14:42:12;2.35;;;1.05;;
42144;SDS011;27813;43.516;11.890;2022-10-29T14:46:37;2.58;;;1.48;;
42144;SDS011;27813;43.516;11.890;2022-10-29T14:50:48;3.53;;;2.05;;
42144;SDS011;27813;43.516;11.890;2022-10-29T14:54:54;2.47;;;1.13;;
42144;SDS011;27813;43.516;11.890;2022-10-29T14:59:06;2.10;;;1.10;;
42144;SDS011;27813;43.516;11.890;2022-10-29T15:03:22;2.92;;;1.30;;
42144;SDS011;27813;43.516;11.890;2022-10-29T15:07:30;3.88;;;1.33;;
42144;SDS011;27813;43.516;11.890;2022-10-29T15:11:45;4.80;;;1.50;;
42144;SDS011;27813;43.516;11.890;2022-10-29T15:16:18;3.20;;;1.20;;
42144;SDS011;27813;43.516;11.890;2022-10-29T15:20:30;9.87;;;2.70;;
42144;SDS011;27813;43.516;11.890;2022-10-29T15:24:42;14.85;;;2.10;;
42144;SDS011;27813;43.516;11.890;2022-10-29T15:28:52;5.15;;;2.10;;
42144;SDS011;27813;43.516;11.890;2022-10-29T15:33:12;8.45;;;2.42;;
42144;SDS011;27813;43.516;11.890;2022-10-29T15:41:47;3.53;;;2.10;;
42144;SDS011;27813;43.516;11.890;2022-10-29T15:45:56;7.28;;;2.65;;
42144;SDS011;27813;43.516;11.890;2022-10-29T15:50:10;2.90;;;2.00;;
42144;SDS011;27813;43.516;11.890;2022-10-29T15:54:24;5.18;;;1.90;;
42144;SDS011;27813;43.516;11.890;2022-10-29T15:58:29;5.47;;;2.47;;
42144;SDS011;27813;43.516;11.890;2022-10-29T16:02:35;5.60;;;1.77;;
42144;SDS011;27813;43.516;11.890;2022-10-29T16:06:40;6.85;;;1.50;;
42144;SDS011;27813;43.516;11.890;2022-10-29T16:10:48;4.78;;;2.67;;
42144;SDS011;27813;43.516;11.890;2022-10-29T16:14:56;3.83;;;1.90;;
42144;SDS011;27813;43.516;11.890;2022-10-29T16:19:01;7.00;;;2.20;;
42144;SDS011;27813;43.516;11.890;2022-10-29T16:23:09;6.32;;;2.13;;
42144;SDS011;27813;43.516;11.890;2022-10-29T16:27:16;4.60;;;1.70;;
42144;SDS011;27813;43.516;11.890;2022-10-29T16:31:26;8.07;;;2.45;;
42144;SDS011;27813;43.516;11.890;2022-10-29T16:35:33;6.78;;;2.28;;
42144;SDS011;27813;43.516;11.890;2022-10-29T16:39:40;6.40;;;2.00;;
42144;SDS011;27813;43.516;11.890;2022-10-29T16:43:47;6.15;;;3.58;;
42144;SDS011;27813;43.516;11.890;2022-10-29T16:47:56;5.45;;;2.55;;
42144;SDS011;27813;43.516;11.890;2022-10-29T16:52:03;5.97;;;2.08;;
42144;SDS011;27813;43.516;11.890;2022-10-29T16:56:12;4.72;;;1.88;;
42144;SDS011;27813;43.516;11.890;2022-10-29T17:00:17;4.60;;;2.15;;
42144;SDS011;27813;43.516;11.890;2022-10-29T17:04:23;4.60;;;2.45;;
42144;SDS011;27813;43.516;11.890;2022-10-29T17:08:37;5.13;;;2.30;;
42144;SDS011;27813;43.516;11.890;2022-10-29T17:12:46;3.05;;;2.03;;
42144;SDS011;27813;43.516;11.890;2022-10-29T17:16:56;5.10;;;2.10;;
42144;SDS011;27813;43.516;11.890;2022-10-29T17:21:04;4.38;;;3.08;;
42144;SDS011;27813;43.516;11.890;2022-10-29T17:29:26;5.93;;;2.00;;
42144;SDS011;27813;43.516;11.890;2022-10-29T17:33:38;5.18;;;2.00;;
42144;SDS011;27813;43.516;11.890;2022-10-29T17:37:45;6.53;;;2.00;;
42144;SDS011;27813;43.516;11.890;2022-10-29T17:41:51;5.60;;;2.10;;
42144;SDS011;27813;43.516;11.890;2022-10-29T17:45:56;5.47;;;2.60;;
42144;SDS011;27813;43.516;11.890;2022-10-29T17:50:04;5.07;;;2.08;;
42144;SDS011;27813;43.516;11.890;2022-10-29T17:54:13;4.35;;;1.55;;
42144;SDS011;27813;43.516;11.890;2022-10-29T17:58:21;6.53;;;1.77;;
42144;SDS011;27813;43.516;11.890;2022-10-29T18:02:25;3.63;;;1.90;;
42144;SDS011;27813;43.516;11.890;2022-10-29T18:06:31;7.60;;;1.73;;
42144;SDS011;27813;43.516;11.890;2022-10-29T18:10:38;3.60;;;2.08;;
42144;SDS011;27813;43.516;11.890;2022-10-29T18:14:42;6.47;;;2.47;;
42144;SDS011;27813;43.516;11.890;2022-10-29T18:18:49;5.30;;;2.58;;
42144;SDS011;27813;43.516;11.890;2022-10-29T18:23:08;6.05;;;2.03;;
42144;SDS011;27813;43.516;11.890;2022-10-29T18:27:15;2.72;;;1.52;;
42144;SDS011;27813;43.516;11.890;2022-10-29T18:31:21;5.70;;;1.85;;
42144;SDS011;27813;43.516;11.890;2022-10-29T18:35:28;6.18;;;2.30;;
42144;SDS011;27813;43.516;11.890;2022-10-29T18:39:32;7.53;;;3.08;;
42144;SDS011;27813;43.516;11.890;2022-10-29T18:43:37;5.50;;;1.98;;
42144;SDS011;27813;43.516;11.890;2022-10-29T18:47:46;6.90;;;2.28;;
42144;SDS011;27813;43.516;11.890;2022-10-29T18:51:52;5.07;;;2.50;;
42144;SDS011;27813;43.516;11.890;2022-10-29T18:55:58;4.25;;;2.28;;
42144;SDS011;27813;43.516;11.890;2022-10-29T19:00:05;11.75;;;3.17;;
42144;SDS011;27813;43.516;11.890;2022-10-29T19:04:12;3.85;;;2.45;;
42144;SDS011;27813;43.516;11.890;2022-10-29T19:08:20;8.68;;;3.08;;
42144;SDS011;27813;43.516;11.890;2022-10-29T19:12:24;4.15;;;2.17;;
42144;SDS011;27813;43.516;11.890;2022-10-29T19:16:31;6.88;;;2.08;;
42144;SDS011;27813;43.516;11.890;2022-10-29T19:20:38;3.60;;;1.80;;
42144;SDS011;27813;43.516;11.890;2022-10-29T19:24:44;6.45;;;3.20;;
42144;SDS011;27813;43.516;11.890;2022-10-29T19:28:49;6.18;;;2.10;;
42144;SDS011;27813;43.516;11.890;2022-10-29T19:32:55;7.05;;;1.75;;
42144;SDS011;27813;43.516;11.890;2022-10-29T19:37:06;5.40;;;1.98;;
42144;SDS011;27813;43.516;11.890;2022-10-29T19:41:15;5.50;;;2.10;;
42144;SDS011;27813;43.516;11.890;2022-10-29T19:45:20;4.95;;;2.45;;
42144;SDS011;27813;43.516;11.890;2022-10-29T19:49:25;9.13;;;3.03;;
42144;SDS011;27813;43.516;11.890;2022-10-29T19:53:32;4.22;;;1.88;;
42144;SDS011;27813;43.516;11.890;2022-10-29T19:57:38;3.83;;;1.83;;
42144;SDS011;27813;43.516;11.890;2022-10-29T20:01:43;6.85;;;2.55;;
42144;SDS011;27813;43.516;11.890;2022-10-29T20:05:53;5.65;;;2.00;;
42144;SDS011;27813;43.516;11.890;2022-10-29T20:10:02;6.88;;;2.00;;
42144;SDS011;27813;43.516;11.890;2022-10-29T20:14:11;3.08;;;1.90;;
42144;SDS011;27813;43.516;11.890;2022-10-29T20:18:17;7.82;;;2.05;;
42144;SDS011;27813;43.516;11.890;2022-10-29T20:22:24;5.15;;;2.40;;
42144;SDS011;27813;43.516;11.890;2022-10-29T20:26:32;5.03;;;2.20;;
42144;SDS011;27813;43.516;11.890;2022-10-29T20:30:43;5.55;;;2.08;;
42144;SDS011;27813;43.516;11.890;2022-10-29T20:34:50;3.50;;;1.95;;
42144;SDS011;27813;43.516;11.890;2022-10-29T20:39:03;4.50;;;1.70;;
42144;SDS011;27813;43.516;11.890;2022-10-29T20:43:20;4.20;;;2.77;;
42144;SDS011;27813;43.516;11.890;2022-10-29T20:47:30;7.22;;;2.40;;
42144;SDS011;27813;43.516;11.890;2022-10-29T20:51:38;4.32;;;2.00;;
42144;SDS011;27813;43.516;11.890;2022-10-29T20:55:47;6.60;;;2.15;;
42144;SDS011;27813;43.516;11.890;2022-10-29T21:00:00;5.18;;;2.40;;
42144;SDS011;27813;43.516;11.890;2022-10-29T21:04:07;5.32;;;1.90;;
42144;SDS011;27813;43.516;11.890;2022-10-29T21:08:11;4.53;;;1.98;;
42144;SDS011;27813;43.516;11.890;2022-10-29T21:12:18;4.18;;;2.08;;
42144;SDS011;27813;43.516;11.890;2022-10-29T21:16:24;5.10;;;2.00;;
42144;SDS011;27813;43.516;11.890;2022-10-29T21:20:30;3.70;;;2.00;;
42144;SDS011;27813;43.516;11.890;2022-10-29T21:24:35;4.53;;;2.30;;
42144;SDS011;27813;43.516;11.890;2022-10-29T21:28:48;3.50;;;2.08;;
42144;SDS011;27813;43.516;11.890;2022-10-29T21:32:56;4.63;;;1.85;;
42144;SDS011;27813;43.516;11.890;2022-10-29T21:37:01;6.50;;;2.08;;
42144;SDS011;27813;43.516;11.890;2022-10-29T21:41:06;6.03;;;2.20;;
42144;SDS011;27813;43.516;11.890;2022-10-29T21:45:15;5.85;;;2.63;;
42144;SDS011;27813;43.516;11.890;2022-10-29T21:49:20;4.82;;;2.17;;
42144;SDS011;27813;43.516;11.890;2022-10-29T21:53:25;4.03;;;1.90;;
42144;SDS011;27813;43.516;11.890;2022-10-29T21:57:30;5.45;;;2.60;;
42144;SDS011;27813;43.516;11.890;2022-10-29T22:01:35;5.43;;;2.03;;
42144;SDS011;27813;43.516;11.890;2022-10-29T22:05:40;4.68;;;2.33;;
42144;SDS011;27813;43.516;11.890;2022-10-29T22:09:48;3.72;;;2.08;;
42144;SDS011;27813;43.516;11.890;2022-10-29T22:13:53;3.25;;;1.92;;
42144;SDS011;27813;43.516;11.890;2022-10-29T22:17:58;4.10;;;1.85;;
42144;SDS011;27813;43.516;11.890;2022-10-29T22:26:07;4.53;;;1.95;;
42144;SDS011;27813;43.516;11.890;2022-10-29T22:30:11;6.43;;;1.90;;
42144;SDS011;27813;43.516;11.890;2022-10-29T22:34:17;4.93;;;2.42;;
42144;SDS011;27813;43.516;11.890;2022-10-29T22:38:21;2.83;;;1.67;;
42144;SDS011;27813;43.516;11.890;2022-10-29T22:42:26;2.70;;;1.50;;
42144;SDS011;27813;43.516;11.890;2022-10-29T22:46:32;3.75;;;1.95;;
42144;SDS011;27813;43.516;11.890;2022-10-29T22:50:36;3.35;;;1.80;;
42144;SDS011;27813;43.516;11.890;2022-10-29T22:54:42;2.70;;;1.67;;
42144;SDS011;27813;43.516;11.890;2022-10-29T22:58:47;4.25;;;2.60;;
42144;SDS011;27813;43.516;11.890;2022-10-29T23:02:53;3.20;;;2.10;;
42144;SDS011;27813;43.516;11.890;2022-10-29T23:06:59;6.47;;;2.13;;
42144;SDS011;27813;43.516;11.890;2022-10-29T23:11:05;5.32;;;2.15;;
42144;SDS011;27813;43.516;11.890;2022-10-29T23:15:16;3.28;;;1.70;;
42144;SDS011;27813;43.516;11.890;2022-10-29T23:19:21;3.25;;;1.80;;
42144;SDS011;27813;43.516;11.890;2022-10-29T23:23:25;3.63;;;1.65;;
42144;SDS011;27813;43.516;11.890;2022-10-29T23:27:31;4.30;;;1.80;;
